createdAt,value
2018-11-22T00:00:21.571Z,23.93
2018-11-22T00:02:51.880Z,24.93
2018-11-22T00:05:20.766Z,24.23
2018-11-22T00:07:50.327Z,24.13
2018-11-22T00:10:19.191Z,25.97
2018-11-22T00:12:47.900Z,24.03
2018-11-22T00:15:16.999Z,23.27
2018-11-22T00:17:46.372Z,24.73
2018-11-22T00:20:15.012Z,24.93
2018-11-22T00:22:43.510Z,25.63
2018-11-22T00:25:13.051Z,25.23
2018-11-22T00:27:41.613Z,23.33
2018-11-22T00:30:12.215Z,23.80
2018-11-22T00:32:40.751Z,24.43
2018-11-22T00:35:10.826Z,23.63
2018-11-22T00:37:39.813Z,24.67
2018-11-22T00:40:13.271Z,26.27
2018-11-22T00:42:42.318Z,26.17
2018-11-22T00:45:12.662Z,25.57
2018-11-22T00:47:41.241Z,24.03
2018-11-22T00:50:13.945Z,25.33
2018-11-22T00:52:43.283Z,24.50
2018-11-22T00:55:14.271Z,24.33
2018-11-22T00:57:43.138Z,26.87
2018-11-22T01:00:14.630Z,25.20
2018-11-22T01:02:43.552Z,24.43
2018-11-22T01:05:12.966Z,23.93
2018-11-22T01:07:41.507Z,25.00
2018-11-22T01:10:13.260Z,24.10
2018-11-22T01:12:42.147Z,26.03
2018-11-22T01:15:10.718Z,26.10
2018-11-22T01:17:39.172Z,25.73
2018-11-22T01:20:09.541Z,23.93
2018-11-22T01:22:38.310Z,25.80
2018-11-22T01:25:07.773Z,24.63
2018-11-22T01:27:36.616Z,25.73
2018-11-22T01:30:07.469Z,24.37
2018-11-22T01:32:36.078Z,25.17
2018-11-22T01:35:04.889Z,24.57
2018-11-22T01:37:33.370Z,24.33
2018-11-22T01:40:01.880Z,25.97
2018-11-22T01:42:30.379Z,26.17
2018-11-22T01:44:59.196Z,25.37
2018-11-22T01:47:27.660Z,25.77
2018-11-22T01:49:56.099Z,24.60
2018-11-22T01:52:25.334Z,24.37
2018-11-22T01:54:53.773Z,23.67
2018-11-22T01:57:22.252Z,24.47
2018-11-22T01:59:50.707Z,23.57
2018-11-22T02:02:19.531Z,24.20
2018-11-22T02:04:48.002Z,25.10
2018-11-22T02:07:16.530Z,25.77
2018-11-22T02:09:45.340Z,25.57
2018-11-22T02:12:13.843Z,24.20
2018-11-22T02:14:42.328Z,25.23
2018-11-22T02:17:10.786Z,24.90
2018-11-22T02:19:39.267Z,24.23
2018-11-22T02:22:07.825Z,23.23
2018-11-22T02:24:36.277Z,23.40
2018-11-22T02:27:05.225Z,24.50
2018-11-22T02:29:33.781Z,24.40
2018-11-22T02:32:02.231Z,24.83
2018-11-22T02:34:30.759Z,24.80
2018-11-22T02:36:59.267Z,24.77
2018-11-22T02:39:27.728Z,24.50
2018-11-22T02:41:56.453Z,23.43
2018-11-22T02:44:24.945Z,24.83
2018-11-22T02:46:53.510Z,24.70
2018-11-22T02:49:22.289Z,23.00
2018-11-22T02:51:50.750Z,24.67
2018-11-22T02:54:19.561Z,24.53
2018-11-22T02:56:48.041Z,26.00
2018-11-22T02:59:16.489Z,26.03
2018-11-22T03:01:44.979Z,25.80
2018-11-22T03:04:13.418Z,25.53
2018-11-22T03:06:41.917Z,25.87
2018-11-22T03:09:11.583Z,24.00
2018-11-22T03:11:40.821Z,26.17
2018-11-22T03:14:09.302Z,25.93
2018-11-22T03:16:37.771Z,25.20
2018-11-22T03:19:06.635Z,25.67
2018-11-22T03:21:35.131Z,26.00
2018-11-22T03:24:03.704Z,26.03
2018-11-22T03:26:32.195Z,25.47
2018-11-22T03:29:00.653Z,26.13
2018-11-22T03:31:29.125Z,25.33
2018-11-22T03:33:57.669Z,25.47
2018-11-22T03:36:26.080Z,25.60
2018-11-22T03:38:54.812Z,26.03
2018-11-22T03:41:23.295Z,24.20
2018-11-22T03:43:51.730Z,26.83
2018-11-22T03:46:20.563Z,27.73
2018-11-22T03:48:49.042Z,29.27
2018-11-22T03:51:17.568Z,29.23
2018-11-22T03:53:46.018Z,29.27
2018-11-22T03:56:14.516Z,30.43
2018-11-22T03:58:43.069Z,31.17
2018-11-22T04:01:11.808Z,29.13
2018-11-22T04:03:40.277Z,28.67
2018-11-22T04:06:08.772Z,27.13
2018-11-22T04:08:37.239Z,27.87
2018-11-22T04:11:05.890Z,28.50
2018-11-22T04:13:34.336Z,28.50
2018-11-22T04:16:02.797Z,27.87
2018-11-22T04:18:31.663Z,27.97
2018-11-22T04:21:00.452Z,29.67
2018-11-22T04:23:28.952Z,28.17
2018-11-22T04:25:57.434Z,28.87
2018-11-22T04:28:25.876Z,28.50
2018-11-22T04:30:54.346Z,27.50
2018-11-22T04:33:22.860Z,27.70
2018-11-22T04:35:51.702Z,29.77
2018-11-22T04:38:20.205Z,27.07
2018-11-22T04:40:48.761Z,26.33
2018-11-22T04:43:17.236Z,27.33
2018-11-22T04:45:45.672Z,26.70
2018-11-22T04:48:14.195Z,26.23
2018-11-22T04:50:42.675Z,27.53
2018-11-22T04:53:11.134Z,27.07
2018-11-22T04:55:39.635Z,26.23
2018-11-22T04:58:08.071Z,29.83
2018-11-22T05:00:36.620Z,26.53
2018-11-22T05:03:05.337Z,26.30
2018-11-22T05:05:34.189Z,27.90
2018-11-22T05:08:02.688Z,28.20
2018-11-22T05:10:31.199Z,28.63
2018-11-22T05:12:59.976Z,25.63
2018-11-22T05:15:30.124Z,25.43
2018-11-22T05:17:58.609Z,27.17
2018-11-22T05:20:27.092Z,28.47
2018-11-22T12:16:09.622Z,31.27
2018-11-22T12:18:38.136Z,32.00
2018-11-22T12:21:06.708Z,32.93
2018-11-22T12:23:35.216Z,29.70
2018-11-22T12:26:03.714Z,29.70
2018-11-22T12:28:32.234Z,31.03
2018-11-22T12:31:06.458Z,31.40
2018-11-22T12:33:44.289Z,33.33
2018-11-22T12:36:17.967Z,29.90
2018-11-22T12:38:47.280Z,31.67
2018-11-22T12:41:15.779Z,33.03
2018-11-22T12:43:44.404Z,33.47
2018-11-22T12:46:12.955Z,32.47
2018-11-22T12:48:41.891Z,32.80
2018-11-22T12:51:10.716Z,32.30
2018-11-22T12:53:39.229Z,32.27
2018-11-22T12:56:07.747Z,31.27
2018-11-22T12:58:36.304Z,31.87
2018-11-22T13:01:05.259Z,30.57
2018-11-22T13:03:33.753Z,31.07
2018-11-22T13:06:02.254Z,32.23
2018-11-22T13:08:30.742Z,30.67
2018-11-22T13:10:59.264Z,30.30
2018-11-22T13:13:27.831Z,29.90
2018-11-22T13:15:56.378Z,30.47
2018-11-22T13:18:24.893Z,30.30
2018-11-22T13:20:53.454Z,30.97
2018-11-22T13:23:21.957Z,31.43
2018-11-22T13:25:50.446Z,30.30
2018-11-22T13:28:18.939Z,31.80
2018-11-22T13:30:47.420Z,30.27
2018-11-22T13:33:16.103Z,30.07
2018-11-22T13:35:44.635Z,30.50
2018-11-22T13:38:13.167Z,32.13
2018-11-22T13:40:41.797Z,30.93
2018-11-22T13:43:10.344Z,31.93
2018-11-22T13:45:38.795Z,31.70
2018-11-22T13:48:07.353Z,32.03
2018-11-22T13:50:41.945Z,31.87
2018-11-22T13:53:06.634Z,32.33
2018-11-22T13:55:35.206Z,31.43
2018-11-22T13:58:03.757Z,32.77
2018-11-22T14:00:33.185Z,32.17
2018-11-22T14:03:03.165Z,33.47
2018-11-22T14:05:31.677Z,33.90
2018-11-22T14:08:00.259Z,31.93
2018-11-22T14:10:28.769Z,33.27
2018-11-22T14:12:57.289Z,33.43
2018-11-22T14:15:27.067Z,36.77
2018-11-22T14:17:57.051Z,33.93
2018-11-22T14:20:28.068Z,32.57
2018-11-22T14:22:56.605Z,33.07
2018-11-22T14:25:25.117Z,33.53
2018-11-22T14:27:53.600Z,34.07
2018-11-22T14:30:23.582Z,32.00
2018-11-22T14:32:52.360Z,33.30
2018-11-22T14:35:21.540Z,31.43
2018-11-22T14:37:50.959Z,32.37
2018-11-22T14:40:21.086Z,34.03
2018-11-22T14:42:50.268Z,32.93
2018-11-22T14:45:18.863Z,33.53
2018-11-22T14:47:48.435Z,35.70
2018-11-22T14:50:20.816Z,37.07
2018-11-22T14:52:52.630Z,36.00
2018-11-22T14:55:21.128Z,37.27
2018-11-22T14:57:49.649Z,35.87
2018-11-22T15:00:18.155Z,37.17
2018-11-22T15:02:47.390Z,35.73
2018-11-22T15:05:16.182Z,36.37
2018-11-22T15:07:44.987Z,36.27
2018-11-22T15:10:14.754Z,37.93
2018-11-22T15:12:44.315Z,37.83
2018-11-22T15:15:15.397Z,35.93
2018-11-22T15:17:43.918Z,38.07
2018-11-22T15:20:13.738Z,36.50
2018-11-22T15:22:42.892Z,37.83
2018-11-22T15:25:12.964Z,35.57
2018-11-22T15:27:42.118Z,36.63
2018-11-22T15:30:12.601Z,34.07
2018-11-22T15:32:41.164Z,37.70
2018-11-22T15:35:12.550Z,36.57
2018-11-22T15:37:41.313Z,36.03
2018-11-22T15:40:12.244Z,37.70
2018-11-22T15:42:40.793Z,34.17
2018-11-22T15:45:11.505Z,36.40
2018-11-22T15:47:40.126Z,37.17
2018-11-22T15:50:10.750Z,36.90
2018-11-22T15:52:39.487Z,35.93
2018-11-22T15:55:08.387Z,36.07
2018-11-22T15:57:37.298Z,36.03
2018-11-22T16:00:09.575Z,35.47
2018-11-22T16:02:38.082Z,35.53
2018-11-22T16:05:07.850Z,36.97
2018-11-22T16:07:36.467Z,38.27
2018-11-22T16:10:07.387Z,34.97
2018-11-22T16:12:35.926Z,34.97
2018-11-22T16:15:05.175Z,36.70
2018-11-22T16:17:34.137Z,33.90
2018-11-22T16:20:02.687Z,33.77
2018-11-22T16:22:31.199Z,35.47
2018-11-22T16:24:59.723Z,35.70
2018-11-22T16:27:28.254Z,35.63
2018-11-22T16:29:56.771Z,37.07
2018-11-22T16:32:25.254Z,37.17
2018-11-22T16:34:53.712Z,36.40
2018-11-22T16:37:22.215Z,35.97
2018-11-22T16:39:54.213Z,37.10
2018-11-22T16:42:19.321Z,35.33
2018-11-22T16:44:48.055Z,35.37
2018-11-22T16:47:16.543Z,36.13
2018-11-22T16:49:44.970Z,35.67
2018-11-22T16:52:13.495Z,34.27
2018-11-22T16:54:41.942Z,34.03
2018-11-22T16:57:10.468Z,35.47
2018-11-22T16:59:38.915Z,35.80
2018-11-22T17:02:07.407Z,36.63
2018-11-22T17:05:38.407Z,35.73
2018-11-22T17:08:07.544Z,36.00
2018-11-22T17:10:36.377Z,34.87
2018-11-22T17:13:05.420Z,36.63
2018-11-22T17:15:35.529Z,36.20
2018-11-22T17:18:04.975Z,36.77
2018-11-22T17:20:33.745Z,36.03
2018-11-22T17:23:03.122Z,36.43
2018-11-22T17:25:33.490Z,36.20
2018-11-22T17:28:04.108Z,36.90
2018-11-22T17:30:35.134Z,35.70
2018-11-22T17:33:04.333Z,31.93
2018-11-22T17:35:33.285Z,32.20
2018-11-22T17:38:03.000Z,34.43
2018-11-22T17:40:32.988Z,34.10
2018-11-22T17:43:01.638Z,38.33
2018-11-22T17:45:32.626Z,34.20
2018-11-22T17:48:01.279Z,33.53
2018-11-22T17:50:31.852Z,36.13
2018-11-22T17:53:00.481Z,35.93
2018-11-22T17:55:29.970Z,34.73
2018-11-22T17:59:27.926Z,34.97
2018-11-22T18:01:56.838Z,34.07
2018-11-22T18:04:25.320Z,33.17
2018-11-22T18:06:53.819Z,31.87
2018-11-22T18:09:22.320Z,33.87
2018-11-22T18:11:50.860Z,32.33
2018-11-22T18:14:19.385Z,31.13
2018-11-22T18:16:47.982Z,32.30
2018-11-22T18:19:16.486Z,32.67
2018-11-22T18:21:45.088Z,30.73
2018-11-22T18:24:13.581Z,34.90
2018-11-22T18:26:42.077Z,31.43
2018-11-22T18:29:10.579Z,32.83
2018-11-22T18:31:39.370Z,33.77
2018-11-22T18:34:07.926Z,35.70
2018-11-22T18:36:36.743Z,39.63
2018-11-22T18:39:08.655Z,39.67
2018-11-22T18:41:37.727Z,37.67
2018-11-22T18:44:06.418Z,33.90
2018-11-22T18:46:34.949Z,34.13
2018-11-22T18:49:03.863Z,32.27
2018-11-22T18:51:32.841Z,32.90
2018-11-22T18:54:01.329Z,32.17
2018-11-22T18:56:33.145Z,32.17
2018-11-22T18:58:58.489Z,32.60
2018-11-22T19:01:28.225Z,30.70
2018-11-22T19:03:56.751Z,31.80
2018-11-22T19:06:25.232Z,30.17
2018-11-22T19:08:53.944Z,32.60
2018-11-22T19:11:22.436Z,30.53
2018-11-22T19:13:50.973Z,31.47
2018-11-22T19:16:19.584Z,29.63
2018-11-22T19:18:48.668Z,29.40
2018-11-22T19:21:17.213Z,31.90
2018-11-22T19:23:46.095Z,33.10
2018-11-22T19:26:14.606Z,31.50
2018-11-22T19:28:43.425Z,31.97
2018-11-22T19:31:11.959Z,32.03
2018-11-22T19:33:40.448Z,30.47
2018-11-22T19:36:09.282Z,31.03
2018-11-22T19:38:37.911Z,30.23
2018-11-22T19:41:06.653Z,31.37
2018-11-22T19:43:35.659Z,34.80
2018-11-22T19:46:04.295Z,33.80
2018-11-22T19:48:32.840Z,35.43
2018-11-22T19:51:05.589Z,35.53
2018-11-22T19:53:29.978Z,35.83
2018-11-22T19:55:58.483Z,34.70
2018-11-22T19:58:27.378Z,31.80
2018-11-22T20:00:55.904Z,33.90
2018-11-22T20:03:24.434Z,32.77
2018-11-22T20:05:53.005Z,31.87
2018-11-22T20:08:21.566Z,31.83
2018-11-22T20:10:50.901Z,32.47
2018-11-22T20:13:19.918Z,30.87
2018-11-22T20:15:48.487Z,30.20
2018-11-22T20:18:17.030Z,34.03
2018-11-22T20:20:50.062Z,30.57
2018-11-22T20:23:21.239Z,34.60
2018-11-22T20:25:44.104Z,34.73
2018-11-22T20:28:12.629Z,35.07
2018-11-22T20:30:42.698Z,35.20
2018-11-22T20:33:11.203Z,32.10
2018-11-22T20:35:39.733Z,31.60
2018-11-22T20:38:08.815Z,34.97
2018-11-22T20:40:37.643Z,36.37
2018-11-22T20:43:06.679Z,34.70
2018-11-22T20:45:40.938Z,35.77
2018-11-22T20:48:07.732Z,34.07
2018-11-22T20:50:36.619Z,35.53
2018-11-22T20:53:05.489Z,33.90
2018-11-22T20:55:35.724Z,34.60
2018-11-22T20:58:05.453Z,32.67
2018-11-22T21:00:35.429Z,30.90
2018-11-22T21:03:03.989Z,31.00
2018-11-22T21:05:32.734Z,30.90
2018-11-22T21:08:01.283Z,38.30
2018-11-22T21:10:31.242Z,39.13
2018-11-22T21:12:59.967Z,36.70
2018-11-22T21:15:30.135Z,44.87
2018-11-22T21:18:00.328Z,38.27
2018-11-22T21:20:30.481Z,39.57
2018-11-22T21:22:59.030Z,39.70
2018-11-22T21:25:28.129Z,36.00
2018-11-22T21:27:56.795Z,37.67
2018-11-22T21:30:28.862Z,39.73
2018-11-22T21:32:57.957Z,35.47
2018-11-22T21:35:26.467Z,33.00
2018-11-22T21:37:55.901Z,34.47
2018-11-22T21:40:25.017Z,34.27
2018-11-22T21:42:53.542Z,37.33
2018-11-22T21:45:23.254Z,36.63
2018-11-22T21:47:51.819Z,35.40
2018-11-22T21:50:21.828Z,36.60
2018-11-22T21:52:50.494Z,36.87
2018-11-22T21:55:20.380Z,39.20
2018-11-22T21:57:49.268Z,40.43
2018-11-22T22:00:21.369Z,39.60
2018-11-22T22:02:52.782Z,38.00
2018-11-22T22:05:20.236Z,37.93
2018-11-22T22:07:48.812Z,37.80
2018-11-22T22:10:17.332Z,37.73
2018-11-22T22:12:45.875Z,36.70
2018-11-22T22:15:17.138Z,33.57
2018-11-22T22:17:46.194Z,37.77
2018-11-22T22:20:18.434Z,37.17
2018-11-22T22:22:47.020Z,39.80
2018-11-22T22:25:17.027Z,37.97
2018-11-22T22:27:45.949Z,38.90
2018-11-22T22:30:16.228Z,37.30
2018-11-22T22:32:45.854Z,38.03
2018-11-22T22:35:14.430Z,38.70
2018-11-22T22:37:42.952Z,39.40
2018-11-22T22:40:13.647Z,39.47
2018-11-22T22:42:43.188Z,39.63
2018-11-22T22:45:12.537Z,38.10
2018-11-22T22:47:41.270Z,38.53
2018-11-22T22:50:12.168Z,39.20
2018-11-22T22:52:40.689Z,39.50
2018-11-22T22:55:09.802Z,39.33
2018-11-22T22:57:38.380Z,37.27
2018-11-22T23:00:16.152Z,36.77
2018-11-22T23:02:44.699Z,36.50
2018-11-22T23:05:13.289Z,36.60
2018-11-22T23:07:41.820Z,37.63
2018-11-22T23:10:10.367Z,36.40
2018-11-22T23:12:38.872Z,33.73
2018-11-22T23:15:09.907Z,35.50
2018-11-22T23:17:38.793Z,35.90
2018-11-22T23:20:10.823Z,37.47
2018-11-22T23:22:39.691Z,34.73
2018-11-22T23:25:08.988Z,35.50
2018-11-22T23:27:37.719Z,35.63
2018-11-22T23:30:26.737Z,35.50
2018-11-22T23:33:01.599Z,33.67
2018-11-22T23:35:30.088Z,34.57
2018-11-22T23:37:58.573Z,35.63
2018-11-22T23:40:28.603Z,36.47
2018-11-22T23:42:57.359Z,34.33
2018-11-22T23:45:27.446Z,34.93
2018-11-22T23:47:56.106Z,34.83
2018-11-22T23:50:27.578Z,32.67
2018-11-22T23:52:57.217Z,34.60
2018-11-22T23:55:25.768Z,36.60
2018-11-22T23:57:54.297Z,33.80
